Time;durP1;ratioP1;P1;durP2;ratioP2;P2;SDS_P1;SDS_P2;PMS_P1;PMS_P2;Temp;Humidity;BMP_temperature;BMP_pressure;BME280_temperature;BME280_humidity;BME280_pressure;Samples;Min_cycle;Max_cycle;Signal;HPM_P1;HPM_P2
2023/04/06 00:00:08;;;;;;;;;;;;;;;-0.45;93.19;96834.19;5036463;28;19954;-71
2023/04/06 00:02:34;;;;;;;;;;;;;;;-0.55;93.07;96826.25;5027122;28;19917;-70
2023/04/06 00:05:00;;;;;;;;;;;;;;;-0.65;94.53;96826.41;5026323;28;19928;-70
2023/04/06 00:07:26;;;;;;;;;;;;;;;-0.69;95.08;96820.00;5013885;28;19980;-70
2023/04/06 00:09:51;;;;;;;;;;;;;;;-0.71;94.83;96814.13;5007783;28;20382;-70
2023/04/06 00:12:16;;;;;;;;;;;;;;;-0.54;94.53;96816.28;4998977;28;19975;-70
2023/04/06 00:14:42;;;;;;;;;;;;;;;-0.61;94.55;96817.47;5003281;28;19925;-70
2023/04/06 00:17:08;;;;;;;;;;;;;;;-0.78;96.45;96806.41;4998127;28;20355;-69
2023/04/06 00:19:33;;;;;;;;;;;;;;;-0.81;96.36;96813.19;5000823;28;19918;-71
2023/04/06 00:21:58;;;;;;;;;;;;;;;-0.84;97.01;96811.06;5002370;28;19917;-70
2023/04/06 00:24:24;;;;;;;;;;;;;;;-0.90;98.19;96817.59;4997975;28;20248;-70
2023/04/06 00:26:49;;;;;;;;;;;;;;;-0.94;98.07;96821.16;5001931;28;19917;-69
2023/04/06 00:29:16;;;;;;;;;;;;;;;-0.73;98.84;96821.69;4999566;28;20392;-70
2023/04/06 00:31:42;;;;;;;;;;;;;;;-0.63;98.17;96827.72;5004724;28;20401;-69
2023/04/06 00:34:07;;;;;;;;;;;;;;;-0.62;97.53;96823.13;5020307;28;19917;-69
2023/04/06 00:36:32;;;;;;;;;;;;;;;-0.65;96.21;96818.31;5022926;28;20290;-70
2023/04/06 00:38:58;;;;;;;;;;;;;;;-0.50;97.26;96823.50;5022760;28;20401;-70
2023/04/06 00:41:23;;;;;;;;;;;;;;;-0.42;96.00;96827.41;5020135;28;20159;-70
2023/04/06 00:43:48;;;;;;;;;;;;;;;-0.57;96.63;96836.50;5026622;28;19967;-70
2023/04/06 00:46:14;;;;;;;;;;;;;;;-0.68;95.88;96835.84;5019268;28;19986;-70
2023/04/06 00:48:40;;;;;;;;;;;;;;;-0.73;95.64;96827.06;5022021;28;20358;-69
2023/04/06 00:51:05;;;;;;;;;;;;;;;-0.74;95.15;96828.94;5026423;28;19921;-70
2023/04/06 00:53:31;;;;;;;;;;;;;;;-0.73;95.03;96825.16;5004913;28;19917;-70
2023/04/06 00:55:56;;;;;;;;;;;;;;;-0.98;97.48;96824.41;5022322;28;19917;-69
2023/04/06 00:58:21;;;;;;;;;;;;;;;-1.29;100.00;96821.31;5017607;28;20172;-70
2023/04/06 01:00:46;;;;;;;;;;;;;;;-1.46;100.00;96824.47;5022354;28;19924;-70
2023/04/06 01:03:12;;;;;;;;;;;;;;;-1.46;100.00;96832.53;5018524;28;19918;-69
2023/04/06 01:05:40;;;;;;;;;;;;;;;-1.18;100.00;96830.84;5019966;28;20900;-68
2023/04/06 01:08:06;;;;;;;;;;;;;;;-0.80;100.00;96817.44;5000400;28;19956;-69
2023/04/06 01:10:31;;;;;;;;;;;;;;;-0.46;97.79;96821.81;5020296;28;19957;-68
2023/04/06 01:12:56;;;;;;;;;;;;;;;-0.56;95.98;96813.09;5004959;28;19932;-69
2023/04/06 01:15:22;;;;;;;;;;;;;;;-0.46;96.07;96815.63;5015826;28;20307;-70
2023/04/06 01:17:47;;;;;;;;;;;;;;;-0.32;95.95;96815.72;5007727;28;19922;-70
2023/04/06 01:20:13;;;;;;;;;;;;;;;-0.33;95.54;96808.72;4997536;28;19972;-71
2023/04/06 01:22:38;;;;;;;;;;;;;;;-0.38;94.99;96806.88;5001642;28;19917;-71
2023/04/06 01:25:03;;;;;;;;;;;;;;;-0.48;95.15;96810.53;4981462;28;19956;-70
2023/04/06 01:27:29;;;;;;;;;;;;;;;-0.51;95.67;96808.44;5001572;28;20362;-69
2023/04/06 01:29:55;;;;;;;;;;;;;;;-0.65;95.88;96810.25;5002798;28;19933;-70
2023/04/06 01:32:20;;;;;;;;;;;;;;;-0.59;96.62;96803.72;4999345;28;19922;-71
2023/04/06 01:34:46;;;;;;;;;;;;;;;-0.46;96.67;96807.56;5004014;28;19918;-70
2023/04/06 01:37:11;;;;;;;;;;;;;;;-0.45;96.35;96799.22;5004322;28;19948;-69
2023/04/06 01:39:36;;;;;;;;;;;;;;;-0.48;95.97;96788.22;4998699;28;19971;-70
2023/04/06 01:42:03;;;;;;;;;;;;;;;-0.78;96.81;96784.88;5022837;28;19952;-71
2023/04/06 01:44:30;;;;;;;;;;;;;;;-0.90;99.08;96795.28;5003111;28;19921;-71
2023/04/06 01:46:56;;;;;;;;;;;;;;;-0.91;99.28;96797.16;5022911;28;20380;-69
2023/04/06 01:49:21;;;;;;;;;;;;;;;-0.90;98.82;96785.34;5018407;28;19963;-69
2023/04/06 01:51:47;;;;;;;;;;;;;;;-0.60;99.16;96791.34;5023000;28;19922;-70
2023/04/06 01:54:12;;;;;;;;;;;;;;;-0.24;97.10;96782.72;5017769;28;20348;-70
2023/04/06 01:56:37;;;;;;;;;;;;;;;-0.17;96.09;96782.34;5022127;28;19928;-70
2023/04/06 01:59:03;;;;;;;;;;;;;;;-0.25;95.41;96773.84;5002801;28;20373;-70
2023/04/06 02:01:28;;;;;;;;;;;;;;;-0.80;97.74;96777.09;5024530;28;20278;-71
2023/04/06 02:03:53;;;;;;;;;;;;;;;-1.26;99.96;96782.31;5027174;28;20298;-71
2023/04/06 02:06:19;;;;;;;;;;;;;;;-1.38;99.28;96780.84;5013501;28;19917;-72
2023/04/06 02:08:44;;;;;;;;;;;;;;;-1.38;99.51;96786.22;5009548;28;19965;-70
2023/04/06 02:11:09;;;;;;;;;;;;;;;-1.40;98.73;96783.00;5001695;28;20021;-70
2023/04/06 02:13:35;;;;;;;;;;;;;;;-1.38;99.18;96786.22;5008596;28;19918;-70
2023/04/06 02:16:02;;;;;;;;;;;;;;;-1.14;100.00;96782.69;5023462;28;20353;-72
2023/04/06 02:18:28;;;;;;;;;;;;;;;-0.97;100.00;96783.00;5021653;28;19933;-70
2023/04/06 02:20:53;;;;;;;;;;;;;;;-0.87;100.00;96782.06;5026446;28;19975;-70
2023/04/06 02:23:18;;;;;;;;;;;;;;;-0.83;99.33;96782.25;5022802;28;19917;-70
2023/04/06 02:25:44;;;;;;;;;;;;;;;-0.84;99.11;96786.06;5000612;28;19928;-69
2023/04/06 02:28:09;;;;;;;;;;;;;;;-0.78;98.19;96783.00;5010106;28;19924;-69
2023/04/06 02:30:34;;;;;;;;;;;;;;;-0.90;97.33;96784.53;5015821;28;20372;-70
2023/04/06 02:33:00;;;;;;;;;;;;;;;-1.17;97.25;96784.06;5006642;28;19947;-69
2023/04/06 02:35:25;;;;;;;;;;;;;;;-1.38;98.52;96780.84;5000749;28;19937;-69
2023/04/06 02:37:50;;;;;;;;;;;;;;;-1.42;99.52;96779.03;5023178;28;19917;-70
2023/04/06 02:40:16;;;;;;;;;;;;;;;-1.40;100.00;96780.31;5023795;28;20377;-71
2023/04/06 02:42:42;;;;;;;;;;;;;;;-1.58;100.00;96775.72;5027365;28;19952;-70
2023/04/06 02:45:07;;;;;;;;;;;;;;;-1.55;100.00;96775.94;5018241;28;19917;-70
2023/04/06 02:47:33;;;;;;;;;;;;;;;-1.25;100.00;96773.16;5025301;28;19917;-69
2023/04/06 02:49:58;;;;;;;;;;;;;;;-1.31;100.00;96777.81;5025429;28;20341;-68
2023/04/06 02:52:23;;;;;;;;;;;;;;;-1.28;100.00;96779.91;5020263;28;19960;-69
2023/04/06 02:54:50;;;;;;;;;;;;;;;-1.38;100.00;96780.84;5025314;28;20302;-69
2023/04/06 02:57:16;;;;;;;;;;;;;;;-1.40;100.00;96772.25;5019794;28;19925;-69
2023/04/06 02:59:41;;;;;;;;;;;;;;;-1.46;100.00;96780.66;5031043;28;19923;-70
2023/04/06 03:02:06;;;;;;;;;;;;;;;-1.49;100.00;96774.00;5030155;28;19917;-70
2023/04/06 03:04:31;;;;;;;;;;;;;;;-1.50;100.00;96779.66;5035835;28;19944;-70
2023/04/06 03:06:57;;;;;;;;;;;;;;;-1.51;100.00;96776.16;5014429;28;19925;-69
2023/04/06 03:09:22;;;;;;;;;;;;;;;-1.65;100.00;96767.19;5003898;28;19947;-71
2023/04/06 03:11:47;;;;;;;;;;;;;;;-1.89;100.00;96773.34;5008794;28;19968;-69
2023/04/06 03:14:13;;;;;;;;;;;;;;;-1.89;100.00;96775.22;5010676;28;20396;-69
2023/04/06 03:16:38;;;;;;;;;;;;;;;-1.75;100.00;96773.47;5013629;28;19922;-68
2023/04/06 03:19:03;;;;;;;;;;;;;;;-1.67;100.00;96778.22;5001691;28;19944;-70
2023/04/06 03:21:29;;;;;;;;;;;;;;;-1.61;100.00;96773.59;5005095;28;19936;-69
2023/04/06 03:23:54;;;;;;;;;;;;;;;-1.67;100.00;96769.38;5005235;28;19924;-70
2023/04/06 03:26:20;;;;;;;;;;;;;;;-1.74;100.00;96772.38;5000494;28;20320;-69
2023/04/06 03:28:45;;;;;;;;;;;;;;;-1.66;100.00;96769.06;5004270;28;19941;-68
2023/04/06 03:31:10;;;;;;;;;;;;;;;-1.65;100.00;96776.03;5000027;28;20012;-68
2023/04/06 03:33:35;;;;;;;;;;;;;;;-1.72;100.00;96780.97;5004438;28;19926;-69
2023/04/06 03:36:01;;;;;;;;;;;;;;;-1.81;100.00;96778.09;5004987;28;20351;-69
2023/04/06 03:38:26;;;;;;;;;;;;;;;-1.75;100.00;96779.66;5010614;28;19949;-70
2023/04/06 03:40:51;;;;;;;;;;;;;;;-1.73;100.00;96777.47;5007763;28;19917;-68
2023/04/06 03:43:16;;;;;;;;;;;;;;;-1.77;100.00;96773.75;4999814;28;19918;-68
2023/04/06 03:45:42;;;;;;;;;;;;;;;-1.76;100.00;96782.63;5013957;28;19985;-69
2023/04/06 03:48:07;;;;;;;;;;;;;;;-1.73;100.00;96782.03;5013458;28;20144;-70
2023/04/06 03:50:32;;;;;;;;;;;;;;;-1.75;100.00;96785.03;5012332;28;20255;-69
2023/04/06 03:52:58;;;;;;;;;;;;;;;-1.76;100.00;96786.09;5024686;28;19917;-70
2023/04/06 03:55:23;;;;;;;;;;;;;;;-1.72;100.00;96783.63;5018993;28;20368;-70
2023/04/06 03:57:48;;;;;;;;;;;;;;;-1.65;100.00;96791.38;5023113;28;19917;-69
2023/04/06 04:00:14;;;;;;;;;;;;;;;-1.73;100.00;96790.09;5019106;28;19923;-68
2023/04/06 04:02:40;;;;;;;;;;;;;;;-1.74;100.00;96788.50;5005438;28;19917;-70
2023/04/06 04:05:05;;;;;;;;;;;;;;;-1.95;100.00;96794.06;5018752;28;19917;-69
2023/04/06 04:07:30;;;;;;;;;;;;;;;-2.18;100.00;96794.81;5014485;28;19918;-69
2023/04/06 04:09:56;;;;;;;;;;;;;;;-2.43;100.00;96795.81;5022473;28;19921;-69
2023/04/06 04:12:22;;;;;;;;;;;;;;;-2.51;100.00;96797.22;5018059;28;19925;-69
2023/04/06 04:14:47;;;;;;;;;;;;;;;-2.66;100.00;96798.16;5024526;28;19944;-69
2023/04/06 04:17:13;;;;;;;;;;;;;;;-2.76;100.00;96801.69;5011057;28;19924;-69
2023/04/06 04:19:38;;;;;;;;;;;;;;;-2.53;100.00;96800.19;5005941;28;19917;-67
2023/04/06 04:22:04;;;;;;;;;;;;;;;-2.37;100.00;96803.56;5020546;28;19917;-69
2023/04/06 04:24:30;;;;;;;;;;;;;;;-2.32;100.00;96800.84;5014878;28;19921;-69
2023/04/06 04:26:56;;;;;;;;;;;;;;;-2.20;100.00;96803.16;5023963;28;19924;-69
2023/04/06 04:29:22;;;;;;;;;;;;;;;-2.12;100.00;96801.75;5019717;28;21297;-69
2023/04/06 04:31:48;;;;;;;;;;;;;;;-2.16;100.00;96806.06;5026226;28;19921;-69
2023/04/06 04:34:13;;;;;;;;;;;;;;;-2.17;100.00;96807.16;5026811;28;19921;-70
2023/04/06 04:36:41;;;;;;;;;;;;;;;-2.12;100.00;96802.56;5013478;28;19932;-72
2023/04/06 04:39:06;;;;;;;;;;;;;;;-2.02;100.00;96798.97;5009616;28;19921;-69
2023/04/06 04:41:31;;;;;;;;;;;;;;;-2.13;100.00;96808.19;5023262;28;19918;-70
2023/04/06 04:43:57;;;;;;;;;;;;;;;-2.16;100.00;96806.88;5023121;28;19921;-69
2023/04/06 04:46:22;;;;;;;;;;;;;;;-2.11;100.00;96814.06;5018360;28;19913;-68
2023/04/06 04:48:47;;;;;;;;;;;;;;;-2.18;100.00;96805.56;5023607;28;19960;-69
2023/04/06 04:51:13;;;;;;;;;;;;;;;-2.22;100.00;96808.00;5023979;28;19992;-70
2023/04/06 04:53:38;;;;;;;;;;;;;;;-2.26;100.00;96812.34;5037689;28;19913;-71
2023/04/06 04:56:04;;;;;;;;;;;;;;;-2.27;100.00;96810.72;5039455;28;19917;-69
2023/04/06 04:58:30;;;;;;;;;;;;;;;-2.20;100.00;96824.63;5026475;28;19932;-69
2023/04/06 05:00:55;;;;;;;;;;;;;;;-2.12;100.00;96825.91;5034881;28;19921;-70
2023/04/06 05:03:25;;;;;;;;;;;;;;;-1.93;100.00;96817.94;5003963;28;19925;-68
2023/04/06 05:05:50;;;;;;;;;;;;;;;-1.90;100.00;96827.34;5014155;28;20349;-69
2023/04/06 05:08:16;;;;;;;;;;;;;;;-1.85;100.00;96821.91;5010936;28;19917;-70
2023/04/06 05:10:41;;;;;;;;;;;;;;;-1.92;100.00;96830.28;5022293;28;19964;-69
2023/04/06 05:13:06;;;;;;;;;;;;;;;-1.85;100.00;96825.41;5018307;28;19949;-68
2023/04/06 05:15:34;;;;;;;;;;;;;;;-1.76;100.00;96825.59;5023207;28;19917;-70
2023/04/06 05:18:01;;;;;;;;;;;;;;;-1.59;100.00;96825.91;5021040;28;20436;-70
2023/04/06 05:20:27;;;;;;;;;;;;;;;-1.14;100.00;96827.59;5019354;28;19917;-69
2023/04/06 05:22:53;;;;;;;;;;;;;;;-0.49;99.07;96827.78;5023290;28;19971;-68
2023/04/06 05:25:18;;;;;;;;;;;;;;;0.41;95.83;96827.66;5014355;28;19917;-71
2023/04/06 05:27:44;;;;;;;;;;;;;;;1.43;89.41;96830.19;5023015;28;20004;-69
2023/04/06 05:30:09;;;;;;;;;;;;;;;2.34;80.86;96828.31;5016510;28;19929;-70
2023/04/06 05:32:35;;;;;;;;;;;;;;;3.05;74.72;96830.97;5022969;28;20012;-68
2023/04/06 05:35:00;;;;;;;;;;;;;;;3.73;69.72;96832.50;5023318;28;20020;-69
2023/04/06 05:37:25;;;;;;;;;;;;;;;4.31;65.61;96830.38;5021802;28;19928;-70
2023/04/06 05:39:50;;;;;;;;;;;;;;;4.69;63.11;96841.25;5026999;28;19924;-69
2023/04/06 05:42:16;;;;;;;;;;;;;;;5.02;61.00;96837.13;5022704;28;19921;-68
2023/04/06 05:44:41;;;;;;;;;;;;;;;5.64;59.36;96841.88;5027279;28;20016;-70
2023/04/06 05:47:07;;;;;;;;;;;;;;;6.10;55.99;96847.47;5014200;28;19925;-71
2023/04/06 05:49:32;;;;;;;;;;;;;;;6.70;54.33;96854.22;5026789;28;19924;-70
2023/04/06 05:51:57;;;;;;;;;;;;;;;7.17;53.15;96847.59;5025580;28;20015;-70
2023/04/06 05:54:23;;;;;;;;;;;;;;;7.53;51.13;96848.69;5022952;28;19921;-70
2023/04/06 05:56:48;;;;;;;;;;;;;;;7.88;50.46;96850.88;5025886;28;19921;-70
2023/04/06 05:59:13;;;;;;;;;;;;;;;8.26;48.77;96851.56;5004107;28;19927;-69
2023/04/06 06:01:39;;;;;;;;;;;;;;;8.50;48.01;96853.41;5027887;28;20377;-68
2023/04/06 06:04:04;;;;;;;;;;;;;;;9.09;45.94;96859.97;5022363;28;19944;-70
2023/04/06 06:06:30;;;;;;;;;;;;;;;9.30;45.47;96859.72;5016675;28;19918;-70
2023/04/06 06:08:58;;;;;;;;;;;;;;;9.60;44.15;96854.56;5009075;28;19944;-69
2023/04/06 06:11:23;;;;;;;;;;;;;;;9.72;43.71;96861.84;5001978;28;20418;-69
2023/04/06 06:13:48;;;;;;;;;;;;;;;10.04;42.54;96867.22;5005904;28;19932;-69
2023/04/06 06:16:14;;;;;;;;;;;;;;;10.37;42.27;96868.69;5002652;28;19928;-70
2023/04/06 06:18:39;;;;;;;;;;;;;;;10.66;41.50;96872.75;4989207;28;19980;-69
2023/04/06 06:21:05;;;;;;;;;;;;;;;10.82;40.66;96878.97;5004954;28;19921;-71
2023/04/06 06:23:30;;;;;;;;;;;;;;;10.06;40.97;96873.13;5009137;28;19921;-67
2023/04/06 06:25:57;;;;;;;;;;;;;;;11.08;40.22;96866.47;5008243;28;19937;-70
2023/04/06 06:28:24;;;;;;;;;;;;;;;11.13;38.96;96874.41;5008282;28;20479;-70
2023/04/06 06:30:50;;;;;;;;;;;;;;;11.80;39.28;96871.13;5010512;28;19929;-71
2023/04/06 06:33:16;;;;;;;;;;;;;;;12.01;38.78;96867.13;5001246;28;19925;-69
2023/04/06 06:35:41;;;;;;;;;;;;;;;12.27;38.12;96862.75;5004055;28;19918;-70
2023/04/06 06:38:06;;;;;;;;;;;;;;;12.38;37.88;96861.69;4998472;28;19953;-71
2023/04/06 06:40:32;;;;;;;;;;;;;;;12.15;38.83;96867.31;5008506;28;19917;-71
2023/04/06 06:42:57;;;;;;;;;;;;;;;12.38;37.38;96858.97;5009041;28;20394;-70
2023/04/06 06:45:25;;;;;;;;;;;;;;;13.10;37.00;96867.94;5015657;28;20263;-70
2023/04/06 06:47:50;;;;;;;;;;;;;;;13.55;36.30;96868.72;5010299;28;19921;-71
2023/04/06 06:50:15;;;;;;;;;;;;;;;14.13;35.25;96875.41;5006812;28;19925;-70
2023/04/06 06:52:41;;;;;;;;;;;;;;;13.94;35.33;96875.69;5027656;28;20385;-71
2023/04/06 06:55:07;;;;;;;;;;;;;;;13.26;36.65;96869.66;5023160;28;19928;-70
2023/04/06 06:57:33;;;;;;;;;;;;;;;11.04;40.14;96879.34;5024546;28;19918;-70
2023/04/06 06:59:59;;;;;;;;;;;;;;;9.80;42.75;96877.28;5025311;28;19918;-71
2023/04/06 07:02:25;;;;;;;;;;;;;;;8.93;47.04;96877.19;5021701;28;19913;-70
2023/04/06 07:04:50;;;;;;;;;;;;;;;10.00;42.98;96880.03;5026600;28;19928;-70
2023/04/06 07:07:15;;;;;;;;;;;;;;;9.10;45.42;96869.78;5015806;28;19917;-70
2023/04/06 07:09:41;;;;;;;;;;;;;;;9.07;46.43;96876.72;4988906;28;19929;-70
2023/04/06 07:12:06;;;;;;;;;;;;;;;10.20;44.31;96881.63;4997907;28;19921;-70
2023/04/06 07:14:32;;;;;;;;;;;;;;;8.08;47.80;96881.06;5024238;28;19921;-71
2023/04/06 07:16:57;;;;;;;;;;;;;;;10.16;43.51;96883.50;5007643;28;19925;-69
2023/04/06 07:19:22;;;;;;;;;;;;;;;11.22;42.13;96882.38;5022511;28;20601;-71
2023/04/06 07:21:49;;;;;;;;;;;;;;;12.10;38.84;96888.81;5023548;28;19944;-71
2023/04/06 07:24:14;;;;;;;;;;;;;;;14.07;36.98;96884.41;5030959;28;19940;-70
2023/04/06 07:26:40;;;;;;;;;;;;;;;14.14;35.25;96885.22;5036863;28;19921;-71
2023/04/06 07:29:05;;;;;;;;;;;;;;;14.00;36.63;96887.91;5042544;28;19928;-71
2023/04/06 07:31:31;;;;;;;;;;;;;;;13.83;36.67;96872.88;5046291;28;19940;-69
2023/04/06 07:33:56;;;;;;;;;;;;;;;14.18;35.87;96888.00;5042476;28;19917;-69
2023/04/06 07:36:21;;;;;;;;;;;;;;;14.60;35.75;96880.34;5050715;28;20383;-71
2023/04/06 07:38:47;;;;;;;;;;;;;;;15.26;34.57;96875.34;5036625;28;19913;-70
2023/04/06 07:41:12;;;;;;;;;;;;;;;14.11;35.12;96874.97;5022930;28;20377;-70
2023/04/06 07:43:38;;;;;;;;;;;;;;;14.12;35.39;96876.56;5020762;28;19917;-71
2023/04/06 07:46:03;;;;;;;;;;;;;;;16.46;32.18;96878.72;5038387;28;19932;-70
2023/04/06 07:48:28;;;;;;;;;;;;;;;15.26;33.50;96880.09;5022744;28;19976;-70
2023/04/06 07:51:00;;;;;;;;;;;;;;;15.66;33.31;96880.88;5023771;28;19921;-69
2023/04/06 07:53:25;;;;;;;;;;;;;;;14.85;33.57;96874.91;5016790;28;20163;-69
2023/04/06 07:55:55;;;;;;;;;;;;;;;14.08;34.52;96877.72;5006398;28;19917;-69
2023/04/06 07:58:20;;;;;;;;;;;;;;;13.05;35.67;96868.28;5001721;28;20339;-71
2023/04/06 08:00:46;;;;;;;;;;;;;;;12.15;38.26;96872.78;5005725;28;19931;-71
2023/04/06 08:03:11;;;;;;;;;;;;;;;11.69;39.15;96880.38;5002317;28;19917;-70
2023/04/06 08:05:36;;;;;;;;;;;;;;;11.91;39.42;96874.06;4991757;28;20260;-70
2023/04/06 08:08:02;;;;;;;;;;;;;;;14.05;34.19;96876.53;5023597;28;19917;-70
2023/04/06 08:10:27;;;;;;;;;;;;;;;12.28;36.97;96873.38;5021886;28;19960;-70
2023/04/06 08:12:52;;;;;;;;;;;;;;;14.14;34.97;96874.22;5024707;28;19917;-70
2023/04/06 08:15:18;;;;;;;;;;;;;;;14.91;32.98;96874.13;5028132;28;19928;-70
2023/04/06 08:17:43;;;;;;;;;;;;;;;15.17;32.99;96874.94;5032234;28;19921;-71
2023/04/06 08:20:08;;;;;;;;;;;;;;;14.09;33.77;96874.56;5024641;28;19924;-71
2023/04/06 08:22:34;;;;;;;;;;;;;;;14.77;33.52;96879.63;5027623;28;19952;-70
2023/04/06 08:24:59;;;;;;;;;;;;;;;16.44;30.81;96882.69;5026755;28;19928;-69
2023/04/06 08:27:25;;;;;;;;;;;;;;;17.54;28.56;96876.16;4989447;28;19984;-70
2023/04/06 08:29:51;;;;;;;;;;;;;;;16.14;29.93;96880.44;5026373;28;19964;-70
2023/04/06 08:32:16;;;;;;;;;;;;;;;15.19;29.55;96880.88;5021201;28;19925;-70
2023/04/06 08:34:41;;;;;;;;;;;;;;;13.24;33.00;96872.78;5027409;28;19961;-71
2023/04/06 08:37:07;;;;;;;;;;;;;;;11.09;36.03;96884.50;5002610;28;19925;-69
2023/04/06 08:39:33;;;;;;;;;;;;;;;12.78;34.73;96876.69;5023744;28;19917;-71
2023/04/06 08:42:00;;;;;;;;;;;;;;;15.23;30.87;96878.91;5025070;28;19922;-71
2023/04/06 08:44:26;;;;;;;;;;;;;;;15.89;28.61;96877.72;5011379;28;20319;-71
2023/04/06 08:46:52;;;;;;;;;;;;;;;16.50;28.22;96872.00;5025122;28;19917;-71
2023/04/06 08:49:18;;;;;;;;;;;;;;;17.56;28.38;96870.97;5020975;28;20439;-70
2023/04/06 08:51:43;;;;;;;;;;;;;;;17.74;28.18;96870.81;5006477;28;20032;-71
2023/04/06 08:54:09;;;;;;;;;;;;;;;17.53;29.96;96874.56;5008579;28;19933;-71
2023/04/06 08:56:37;;;;;;;;;;;;;;;16.39;31.33;96880.34;5012216;28;19952;-71
2023/04/06 08:59:02;;;;;;;;;;;;;;;16.05;31.39;96871.78;5015309;28;19939;-72
2023/04/06 09:01:28;;;;;;;;;;;;;;;16.33;31.02;96870.09;5021361;28;20330;-70
2023/04/06 09:03:58;;;;;;;;;;;;;;;15.88;32.47;96869.81;5024462;28;19921;-70
2023/04/06 09:06:26;;;;;;;;;;;;;;;15.88;30.95;96873.38;5020099;28;20125;-69
2023/04/06 09:08:51;;;;;;;;;;;;;;;13.87;34.60;96867.38;5029813;28;20374;-70
2023/04/06 09:11:16;;;;;;;;;;;;;;;15.23;32.69;96867.88;5001691;28;20016;-69
2023/04/06 09:14:00;;;;;;;;;;;;;;;15.16;32.93;96867.06;5022277;28;19925;-69
2023/04/06 09:16:25;;;;;;;;;;;;;;;16.41;30.85;96864.16;5008512;28;19921;-70
2023/04/06 09:18:51;;;;;;;;;;;;;;;15.97;30.97;96857.19;5005978;28;19933;-69
2023/04/06 09:21:18;;;;;;;;;;;;;;;16.80;28.82;96856.88;5016747;28;19940;-69
2023/04/06 09:23:43;;;;;;;;;;;;;;;15.67;30.05;96869.44;5022804;28;20258;-71
2023/04/06 09:26:13;;;;;;;;;;;;;;;15.38;30.44;96868.66;5010263;28;19920;-70
2023/04/06 09:28:42;;;;;;;;;;;;;;;15.42;30.28;96863.94;5022216;28;19917;-69
2023/04/06 09:31:09;;;;;;;;;;;;;;;15.58;29.80;96871.03;4983862;28;19924;-69
2023/04/06 09:33:37;;;;;;;;;;;;;;;15.18;29.65;96861.94;5022284;28;19928;-70
2023/04/06 09:36:03;;;;;;;;;;;;;;;13.95;31.06;96857.97;5018863;28;19917;-70
2023/04/06 09:38:28;;;;;;;;;;;;;;;13.41;31.54;96865.09;5017948;28;19917;-71
2023/04/06 09:40:53;;;;;;;;;;;;;;;14.55;30.85;96864.97;5021754;28;19921;-71
2023/04/06 09:43:26;;;;;;;;;;;;;;;14.14;31.10;96854.94;5007851;28;19924;-69
2023/04/06 09:45:52;;;;;;;;;;;;;;;15.21;29.19;96852.88;5021962;28;19963;-70
2023/04/06 09:48:19;;;;;;;;;;;;;;;15.57;28.82;96861.16;4997393;28;19924;-74
2023/04/06 09:50:44;;;;;;;;;;;;;;;15.51;29.37;96851.72;5019361;28;20267;-70
2023/04/06 09:53:10;;;;;;;;;;;;;;;15.57;28.97;96852.88;5019211;28;19925;-71
2023/04/06 09:55:39;;;;;;;;;;;;;;;16.07;28.59;96847.28;5013650;28;20279;-70
2023/04/06 09:58:06;;;;;;;;;;;;;;;15.43;28.65;96850.91;5016940;28;19918;-69
2023/04/06 10:00:32;;;;;;;;;;;;;;;14.63;29.61;96847.28;5003341;28;19925;-70
2023/04/06 10:03:02;;;;;;;;;;;;;;;14.70;29.73;96838.25;5022028;28;19971;-70
2023/04/06 10:05:37;;;;;;;;;;;;;;;14.48;29.05;96840.91;5020821;28;20036;-70
2023/04/06 10:08:06;;;;;;;;;;;;;;;14.91;27.71;96840.25;5015045;28;19918;-70
2023/04/06 10:10:31;;;;;;;;;;;;;;;15.17;28.20;96846.59;5012447;28;19975;-71
2023/04/06 10:12:58;;;;;;;;;;;;;;;15.77;26.97;96845.00;5015330;28;19917;-70
2023/04/06 10:15:24;;;;;;;;;;;;;;;15.24;28.29;96841.06;5018744;28;20238;-71
2023/04/06 10:17:49;;;;;;;;;;;;;;;16.14;26.58;96838.19;5030678;28;20397;-71
2023/04/06 10:20:18;;;;;;;;;;;;;;;16.00;26.17;96833.50;5028303;28;19925;-70
2023/04/06 10:23:01;;;;;;;;;;;;;;;15.86;26.47;96837.06;5032248;28;19917;-72
2023/04/06 10:25:30;;;;;;;;;;;;;;;15.60;26.73;96830.00;5030517;28;19959;-71
2023/04/06 10:27:59;;;;;;;;;;;;;;;14.87;27.79;96826.47;5026514;28;19917;-70
2023/04/06 10:30:25;;;;;;;;;;;;;;;15.26;27.05;96828.44;5017065;28;20501;-69
2023/04/06 10:32:50;;;;;;;;;;;;;;;15.48;27.54;96832.00;5025815;28;20380;-70
2023/04/06 10:35:16;;;;;;;;;;;;;;;15.76;27.20;96826.88;5018780;28;19922;-69
2023/04/06 10:37:49;;;;;;;;;;;;;;;13.92;30.14;96820.22;5025611;28;19999;-69
2023/04/06 10:40:21;;;;;;;;;;;;;;;15.67;28.04;96825.25;5035559;28;19923;-69
2023/04/06 10:42:46;;;;;;;;;;;;;;;15.57;24.91;96823.28;5014459;28;19963;-70
2023/04/06 10:45:21;;;;;;;;;;;;;;;15.63;27.44;96821.72;5005804;28;19918;-70
2023/04/06 10:47:47;;;;;;;;;;;;;;;15.94;26.39;96818.53;5007202;28;19940;-70
2023/04/06 10:50:16;;;;;;;;;;;;;;;16.04;26.48;96818.50;5001089;28;19918;-69
2023/04/06 10:52:41;;;;;;;;;;;;;;;16.50;24.34;96822.25;5020947;28;19917;-70
2023/04/06 10:55:10;;;;;;;;;;;;;;;16.15;25.64;96818.47;5018976;28;19917;-69
2023/04/06 10:57:36;;;;;;;;;;;;;;;16.80;24.97;96807.84;5023407;28;19921;-69
2023/04/06 11:00:04;;;;;;;;;;;;;;;16.07;25.15;96814.13;5023000;28;19917;-72
2023/04/06 11:02:29;;;;;;;;;;;;;;;16.81;24.96;96814.94;5010713;28;19928;-71
2023/04/06 11:04:56;;;;;;;;;;;;;;;16.63;25.59;96808.75;5010299;28;19917;-68
2023/04/06 11:07:25;;;;;;;;;;;;;;;16.71;25.41;96804.75;5006496;28;21939;-70
2023/04/06 11:09:51;;;;;;;;;;;;;;;16.17;26.00;96807.78;5012884;28;19921;-70
2023/04/06 11:12:23;;;;;;;;;;;;;;;16.04;25.84;96812.16;4998490;28;19925;-70
2023/04/06 11:14:56;;;;;;;;;;;;;;;15.29;27.02;96808.34;5005888;28;19972;-70
2023/04/06 11:17:28;;;;;;;;;;;;;;;15.21;27.09;96806.75;5001249;28;20199;-69
2023/04/06 11:19:54;;;;;;;;;;;;;;;15.22;27.39;96805.59;5004866;28;19926;-72
2023/04/06 11:22:19;;;;;;;;;;;;;;;15.01;27.17;96797.31;5001582;28;20337;-70
2023/04/06 11:24:44;;;;;;;;;;;;;;;15.07;28.24;96798.50;5005450;28;19960;-70
2023/04/06 11:27:10;;;;;;;;;;;;;;;13.83;29.49;96798.53;4997594;28;19960;-71
2023/04/06 11:29:37;;;;;;;;;;;;;;;14.60;27.28;96795.66;5004321;28;19933;-71
2023/04/06 11:32:04;;;;;;;;;;;;;;;14.18;28.35;96766.81;5001461;28;19918;-69
2023/04/06 11:34:30;;;;;;;;;;;;;;;13.96;28.22;96786.00;4995071;28;19945;-70
2023/04/06 11:36:57;;;;;;;;;;;;;;;14.17;28.38;96786.47;5004108;28;19922;-71
2023/04/06 11:39:23;;;;;;;;;;;;;;;14.86;27.56;96783.50;4998850;28;20690;-70
2023/04/06 11:41:52;;;;;;;;;;;;;;;15.20;27.26;96780.38;5004144;28;19922;-71
2023/04/06 11:44:33;;;;;;;;;;;;;;;14.99;27.22;96780.38;4999369;28;20287;-69
2023/04/06 11:46:59;;;;;;;;;;;;;;;14.67;28.06;96783.88;5003174;28;19922;-69
2023/04/06 11:49:28;;;;;;;;;;;;;;;14.95;27.82;96774.06;4997472;28;19976;-70
2023/04/06 11:51:53;;;;;;;;;;;;;;;14.70;27.96;96772.84;5022794;28;19925;-70
2023/04/06 11:54:29;;;;;;;;;;;;;;;14.82;29.02;96768.94;5002328;28;19917;-71
2023/04/06 11:56:54;;;;;;;;;;;;;;;14.93;28.06;96773.66;5025693;28;20000;-71
2023/04/06 11:59:21;;;;;;;;;;;;;;;14.94;28.18;96758.69;5018572;28;19945;-71
2023/04/06 12:01:47;;;;;;;;;;;;;;;14.90;28.69;96772.50;5024017;28;19944;-69
2023/04/06 12:04:13;;;;;;;;;;;;;;;14.77;28.51;96761.06;5021538;28;19921;-70
2023/04/06 12:06:38;;;;;;;;;;;;;;;14.80;28.08;96763.03;5029240;28;19917;-70
2023/04/06 12:09:03;;;;;;;;;;;;;;;14.61;28.01;96768.91;5014889;28;19979;-69
2023/04/06 12:11:28;;;;;;;;;;;;;;;14.30;28.79;96757.41;5019150;28;19917;-70
2023/04/06 12:13:54;;;;;;;;;;;;;;;14.20;30.07;96749.91;5025031;28;20012;-71
2023/04/06 12:16:19;;;;;;;;;;;;;;;13.79;29.50;96753.66;5020172;28;20366;-70
2023/04/06 12:18:44;;;;;;;;;;;;;;;14.22;29.24;96753.81;5025029;28;20022;-71
2023/04/06 12:21:10;;;;;;;;;;;;;;;14.24;29.48;96745.19;5024927;28;19960;-71
2023/04/06 12:23:35;;;;;;;;;;;;;;;14.58;29.89;96742.91;5024234;28;19921;-71
2023/04/06 12:26:01;;;;;;;;;;;;;;;13.96;29.62;96738.41;5024224;28;20032;-71
2023/04/06 12:28:27;;;;;;;;;;;;;;;13.72;30.22;96735.19;5019215;28;19924;-71
2023/04/06 12:30:53;;;;;;;;;;;;;;;13.32;30.19;96736.91;5023526;28;20362;-70
2023/04/06 12:33:18;;;;;;;;;;;;;;;13.63;29.93;96734.75;5017606;28;20389;-70
2023/04/06 12:35:44;;;;;;;;;;;;;;;13.67;29.00;96732.78;5021380;28;19932;-70
2023/04/06 12:38:10;;;;;;;;;;;;;;;13.45;28.95;96728.34;5015978;28;20405;-71